Time;durP1;ratioP1;P1;durP2;ratioP2;P2;SDS_P1;SDS_P2;PMS_P1;PMS_P2;Temp;Humidity;BMP_temperature;BMP_pressure;BME280_temperature;BME280_humidity;BME280_pressure;Samples;Min_cycle;Max_cycle;Signal;HPM_P1;HPM_P2
2021/10/24 00:01:48;;;;;;;7.18;5.93;;;;;;;;;;4993330;28;20263;-72
2021/10/24 00:04:15;;;;;;;9.07;6.22;;;;;;;;;;4992421;28;20209;-71
2021/10/24 00:06:42;;;;;;;8.02;7.20;;;;;;;;;;4991526;28;20205;-72
2021/10/24 00:09:11;;;;;;;9.32;8.00;;;;;;;;;;4984625;28;20189;-71
2021/10/24 00:11:38;;;;;;;9.98;6.75;;;;;;;;;;4988364;28;20650;-72
2021/10/24 00:14:07;;;;;;;9.82;6.90;;;;;;;;;;4987534;28;20193;-72
2021/10/24 00:16:34;;;;;;;7.70;6.20;;;;;;;;;;4991366;28;20729;-72
2021/10/24 00:19:01;;;;;;;9.70;7.70;;;;;;;;;;4992893;28;20217;-72
2021/10/24 00:21:29;;;;;;;9.20;7.30;;;;;;;;;;4993591;28;20288;-72
2021/10/24 00:23:56;;;;;;;9.82;6.10;;;;;;;;;;4989169;28;20233;-71
2021/10/24 00:26:24;;;;;;;7.28;5.80;;;;;;;;;;4992594;28;20208;-72
2021/10/24 00:28:51;;;;;;;6.93;6.20;;;;;;;;;;4989171;28;20195;-71
2021/10/24 00:31:18;;;;;;;7.00;6.25;;;;;;;;;;4974464;28;20227;-71
2021/10/24 00:33:46;;;;;;;8.93;7.05;;;;;;;;;;4987328;28;20201;-71
2021/10/24 00:36:13;;;;;;;9.82;7.65;;;;;;;;;;4991968;28;20252;-71
2021/10/24 00:38:40;;;;;;;12.98;7.75;;;;;;;;;;4985995;28;20204;-71
2021/10/24 00:41:07;;;;;;;9.52;6.15;;;;;;;;;;4973632;28;20198;-71
2021/10/24 00:43:35;;;;;;;8.57;7.35;;;;;;;;;;4978264;28;20285;-71
2021/10/24 00:46:02;;;;;;;7.75;6.22;;;;;;;;;;4974915;28;20253;-71
2021/10/24 00:48:29;;;;;;;8.95;7.05;;;;;;;;;;4982550;28;20202;-71
2021/10/24 00:50:56;;;;;;;6.90;6.20;;;;;;;;;;4993142;28;20684;-72
2021/10/24 00:53:23;;;;;;;9.52;6.35;;;;;;;;;;4989365;28;20198;-72
2021/10/24 00:55:50;;;;;;;8.30;6.15;;;;;;;;;;4973700;28;20210;-71
2021/10/24 00:58:18;;;;;;;11.73;6.93;;;;;;;;;;4986835;28;20209;-71
2021/10/24 01:00:46;;;;;;;9.05;6.70;;;;;;;;;;4980776;28;20585;-71
2021/10/24 01:03:13;;;;;;;9.38;6.85;;;;;;;;;;4982658;28;20650;-72
2021/10/24 01:05:41;;;;;;;7.88;6.22;;;;;;;;;;4973343;28;20217;-72
2021/10/24 01:08:09;;;;;;;10.57;7.15;;;;;;;;;;4982502;28;20635;-72
2021/10/24 01:10:36;;;;;;;6.93;6.18;;;;;;;;;;4991136;28;20660;-72
2021/10/24 01:13:03;;;;;;;11.32;6.50;;;;;;;;;;4984188;28;20257;-71
2021/10/24 01:15:30;;;;;;;8.93;6.50;;;;;;;;;;4985278;28;20198;-72
2021/10/24 01:17:58;;;;;;;7.63;5.97;;;;;;;;;;4989092;28;20270;-72
2021/10/24 01:20:26;;;;;;;7.38;6.28;;;;;;;;;;4991790;28;20221;-72
2021/10/24 01:22:55;;;;;;;9.23;6.80;;;;;;;;;;4985020;28;20198;-72
2021/10/24 01:25:22;;;;;;;7.13;6.43;;;;;;;;;;4987988;28;20292;-72
2021/10/24 01:27:51;;;;;;;6.65;5.50;;;;;;;;;;4984988;28;20189;-73
2021/10/24 01:30:18;;;;;;;6.68;6.03;;;;;;;;;;4983050;28;20218;-72
2021/10/24 01:32:46;;;;;;;7.32;6.53;;;;;;;;;;4982557;28;20194;-72
2021/10/24 01:35:13;;;;;;;7.15;6.32;;;;;;;;;;4991425;28;20281;-73
2021/10/24 01:37:40;;;;;;;7.13;5.57;;;;;;;;;;4985340;28;20201;-73
2021/10/24 01:40:10;;;;;;;8.00;6.15;;;;;;;;;;4973627;28;20249;-72
2021/10/24 01:42:46;;;;;;;6.68;5.85;;;;;;;;;;4974450;28;20194;-73
2021/10/24 01:45:13;;;;;;;7.07;5.55;;;;;;;;;;4973496;28;20609;-73
2021/10/24 01:47:40;;;;;;;8.32;6.28;;;;;;;;;;4980401;28;20214;-72
2021/10/24 01:50:07;;;;;;;8.10;5.78;;;;;;;;;;4992081;28;20640;-72
2021/10/24 01:52:40;;;;;;;6.60;5.70;;;;;;;;;;4990352;28;20197;-72
2021/10/24 01:55:09;;;;;;;6.30;5.30;;;;;;;;;;4989144;28;20210;-72
2021/10/24 01:57:36;;;;;;;10.10;6.65;;;;;;;;;;4992035;28;20588;-72
2021/10/24 02:00:03;;;;;;;6.05;4.88;;;;;;;;;;4986962;28;20317;-72
2021/10/24 02:02:32;;;;;;;8.73;6.63;;;;;;;;;;4990345;28;20228;-72
2021/10/24 02:04:59;;;;;;;8.65;6.32;;;;;;;;;;4981704;28;20206;-73
2021/10/24 02:07:26;;;;;;;6.93;5.95;;;;;;;;;;4973603;28;20276;-72
2021/10/24 02:09:53;;;;;;;6.25;5.63;;;;;;;;;;4972878;28;20203;-72
2021/10/24 02:12:22;;;;;;;7.90;5.57;;;;;;;;;;4972608;28;20202;-72
2021/10/24 02:14:49;;;;;;;8.35;5.50;;;;;;;;;;4975928;28;20412;-72
2021/10/24 02:17:17;;;;;;;7.40;5.53;;;;;;;;;;4988641;28;20660;-72
2021/10/24 02:19:44;;;;;;;6.35;5.15;;;;;;;;;;4985711;28;20217;-72
2021/10/24 02:22:11;;;;;;;8.15;6.22;;;;;;;;;;4992119;28;20255;-72
2021/10/24 02:24:38;;;;;;;6.57;5.10;;;;;;;;;;4977161;28;20670;-72
2021/10/24 02:27:05;;;;;;;6.60;5.75;;;;;;;;;;4973726;28;20209;-72
2021/10/24 02:29:34;;;;;;;15.48;5.40;;;;;;;;;;4988804;28;20272;-72
2021/10/24 02:32:01;;;;;;;5.93;5.32;;;;;;;;;;4992012;28;20208;-72
2021/10/24 02:34:28;;;;;;;7.82;5.40;;;;;;;;;;4992177;28;20665;-73
2021/10/24 02:36:55;;;;;;;6.40;5.03;;;;;;;;;;4988219;28;20201;-72
2021/10/24 02:39:22;;;;;;;6.28;5.65;;;;;;;;;;4985605;28;20244;-72
2021/10/24 02:41:49;;;;;;;8.27;5.53;;;;;;;;;;4990613;28;20209;-72
2021/10/24 02:44:16;;;;;;;5.28;4.78;;;;;;;;;;4987396;28;20198;-72
2021/10/24 02:46:45;;;;;;;7.90;5.90;;;;;;;;;;4974252;28;20662;-72
2021/10/24 02:49:12;;;;;;;7.53;4.97;;;;;;;;;;4979844;28;20205;-72
2021/10/24 02:51:40;;;;;;;6.43;5.65;;;;;;;;;;4991484;28;20263;-71
2021/10/24 02:54:07;;;;;;;7.13;4.70;;;;;;;;;;4979588;28;20637;-71
2021/10/24 02:56:34;;;;;;;5.78;4.80;;;;;;;;;;4991618;28;20205;-71
2021/10/24 02:59:01;;;;;;;5.88;4.95;;;;;;;;;;4991136;28;20219;-71
2021/10/24 03:01:28;;;;;;;8.55;5.40;;;;;;;;;;4990831;28;20217;-70
2021/10/24 03:03:56;;;;;;;5.15;4.68;;;;;;;;;;4985904;28;20209;-70
2021/10/24 03:06:23;;;;;;;5.57;5.07;;;;;;;;;;4975914;28;20249;-72
2021/10/24 03:08:51;;;;;;;5.47;4.97;;;;;;;;;;4991674;28;20255;-73
2021/10/24 03:11:18;;;;;;;6.30;5.68;;;;;;;;;;4988716;28;20532;-72
2021/10/24 03:13:45;;;;;;;5.75;4.70;;;;;;;;;;4988216;28;20222;-71
2021/10/24 03:16:12;;;;;;;7.15;5.85;;;;;;;;;;4990296;28;20593;-72
2021/10/24 03:18:39;;;;;;;6.13;4.30;;;;;;;;;;4995128;28;20664;-72
2021/10/24 03:21:07;;;;;;;5.50;4.78;;;;;;;;;;4994575;28;20279;-72
2021/10/24 03:23:35;;;;;;;6.78;5.25;;;;;;;;;;4976651;28;20198;-72
2021/10/24 03:26:03;;;;;;;7.00;5.25;;;;;;;;;;4978991;28;20667;-72
2021/10/24 03:28:30;;;;;;;5.93;4.90;;;;;;;;;;4994871;28;20252;-72
2021/10/24 03:30:58;;;;;;;4.55;3.85;;;;;;;;;;4994677;28;20221;-72
2021/10/24 03:33:25;;;;;;;4.88;4.38;;;;;;;;;;4995180;28;20288;-72
2021/10/24 03:35:52;;;;;;;4.80;4.13;;;;;;;;;;4995177;28;20658;-73
2021/10/24 03:38:21;;;;;;;5.80;4.30;;;;;;;;;;4993160;28;20197;-72
2021/10/24 03:40:48;;;;;;;4.90;4.40;;;;;;;;;;4994560;28;20692;-73
2021/10/24 03:43:15;;;;;;;6.90;5.78;;;;;;;;;;4995046;28;20205;-72
2021/10/24 03:45:42;;;;;;;4.68;4.18;;;;;;;;;;4994541;28;20201;-72
2021/10/24 03:48:09;;;;;;;4.35;3.95;;;;;;;;;;4995111;28;20220;-72
2021/10/24 03:50:36;;;;;;;3.92;3.50;;;;;;;;;;4995070;28;20197;-72
2021/10/24 03:53:03;;;;;;;4.93;4.43;;;;;;;;;;4992741;28;20653;-72
2021/10/24 03:55:32;;;;;;;5.30;4.80;;;;;;;;;;4989961;28;20248;-72
2021/10/24 03:57:59;;;;;;;3.92;3.53;;;;;;;;;;4994990;28;20198;-72
2021/10/24 04:00:26;;;;;;;5.88;3.80;;;;;;;;;;4979016;28;20218;-71
2021/10/24 04:02:54;;;;;;;9.52;4.45;;;;;;;;;;4974987;28;20237;-71
2021/10/24 04:05:21;;;;;;;5.00;3.20;;;;;;;;;;4987790;28;20201;-72
2021/10/24 04:07:49;;;;;;;4.28;3.88;;;;;;;;;;4988321;28;20205;-72
2021/10/24 04:10:16;;;;;;;5.28;4.43;;;;;;;;;;4980113;28;20194;-72
2021/10/24 04:12:45;;;;;;;3.67;3.38;;;;;;;;;;4974976;28;20232;-73
2021/10/24 04:15:12;;;;;;;4.88;4.00;;;;;;;;;;4984917;28;20672;-73
2021/10/24 04:17:39;;;;;;;6.20;4.40;;;;;;;;;;4993758;28;20210;-72
2021/10/24 04:20:07;;;;;;;4.90;3.95;;;;;;;;;;4991411;28;20220;-73
2021/10/24 04:22:34;;;;;;;4.50;3.63;;;;;;;;;;4993877;28;20668;-73
2021/10/24 04:25:01;;;;;;;4.85;3.78;;;;;;;;;;4981478;28;20214;-72
2021/10/24 04:27:28;;;;;;;5.03;4.55;;;;;;;;;;4974892;28;20213;-73
2021/10/24 04:29:57;;;;;;;4.25;3.75;;;;;;;;;;4987101;28;20616;-73
2021/10/24 04:32:24;;;;;;;5.63;4.50;;;;;;;;;;4988313;28;20731;-72
2021/10/24 04:34:51;;;;;;;4.75;4.35;;;;;;;;;;4982626;28;20261;-72
2021/10/24 04:37:18;;;;;;;5.15;4.65;;;;;;;;;;4974790;28;20198;-73
2021/10/24 04:39:45;;;;;;;5.55;3.92;;;;;;;;;;4974492;28;20276;-73
2021/10/24 04:42:12;;;;;;;5.63;4.10;;;;;;;;;;4988472;28;20617;-72
2021/10/24 04:44:39;;;;;;;4.57;3.47;;;;;;;;;;4989895;28;20214;-72
2021/10/24 04:47:07;;;;;;;6.93;3.97;;;;;;;;;;4976846;28;20691;-72
2021/10/24 04:49:34;;;;;;;4.47;3.70;;;;;;;;;;4993503;28;20669;-72
2021/10/24 04:52:01;;;;;;;4.80;4.03;;;;;;;;;;4980406;28;20201;-72
2021/10/24 04:54:28;;;;;;;4.43;4.00;;;;;;;;;;4989723;28;20208;-72
2021/10/24 04:56:56;;;;;;;3.78;3.45;;;;;;;;;;4993795;28;20213;-72
2021/10/24 04:59:23;;;;;;;4.30;3.90;;;;;;;;;;4992413;28;20200;-72
2021/10/24 05:01:51;;;;;;;4.10;3.72;;;;;;;;;;4990801;28;20655;-72
2021/10/24 05:04:19;;;;;;;7.63;4.05;;;;;;;;;;4993650;28;20692;-72
2021/10/24 05:06:46;;;;;;;5.97;4.30;;;;;;;;;;4992542;28;20550;-72
2021/10/24 05:09:14;;;;;;;4.78;4.18;;;;;;;;;;4993469;28;20546;-73
2021/10/24 05:11:41;;;;;;;4.65;3.75;;;;;;;;;;4981699;28;20606;-73
2021/10/24 05:14:08;;;;;;;6.03;4.50;;;;;;;;;;4973990;28;20248;-72
2021/10/24 05:16:35;;;;;;;5.28;3.90;;;;;;;;;;4993550;28;20201;-73
2021/10/24 05:19:02;;;;;;;3.38;3.05;;;;;;;;;;4986476;28;20202;-72
2021/10/24 05:21:30;;;;;;;4.53;3.55;;;;;;;;;;4992229;28;20225;-73
2021/10/24 05:23:58;;;;;;;4.82;3.60;;;;;;;;;;4974240;28;20202;-73
2021/10/24 05:26:25;;;;;;;4.30;3.90;;;;;;;;;;4973633;28;20276;-72
2021/10/24 05:28:52;;;;;;;3.95;3.60;;;;;;;;;;4973908;28;20202;-73
2021/10/24 05:31:19;;;;;;;4.30;3.90;;;;;;;;;;4990874;28;20221;-72
2021/10/24 05:33:46;;;;;;;4.50;3.67;;;;;;;;;;4984810;28;20201;-73
2021/10/24 05:36:14;;;;;;;3.58;3.28;;;;;;;;;;4986869;28;20202;-72
2021/10/24 05:38:42;;;;;;;4.30;3.90;;;;;;;;;;4987680;28;20209;-72
2021/10/24 05:41:09;;;;;;;4.07;3.78;;;;;;;;;;4977351;28;20218;-73
2021/10/24 05:43:36;;;;;;;4.68;4.25;;;;;;;;;;4981688;28;20198;-73
2021/10/24 05:46:05;;;;;;;5.00;4.00;;;;;;;;;;4990580;28;20593;-73
2021/10/24 05:48:32;;;;;;;4.40;4.00;;;;;;;;;;4992019;28;20194;-73
2021/10/24 05:51:00;;;;;;;4.10;3.70;;;;;;;;;;4991786;28;20202;-73
2021/10/24 05:53:27;;;;;;;5.65;3.72;;;;;;;;;;4991624;28;20248;-72
2021/10/24 05:55:56;;;;;;;6.07;3.10;;;;;;;;;;4987906;28;20213;-72
2021/10/24 05:58:23;;;;;;;7.25;4.45;;;;;;;;;;4992345;28;20217;-73
2021/10/24 06:00:57;;;;;;;5.22;3.63;;;;;;;;;;4985749;28;20225;-73
2021/10/24 06:03:24;;;;;;;4.40;3.70;;;;;;;;;;4985349;28;20194;-72
2021/10/24 06:05:51;;;;;;;5.82;3.50;;;;;;;;;;4984335;28;20209;-73
2021/10/24 06:08:22;;;;;;;5.07;3.50;;;;;;;;;;4992324;28;20194;-72
2021/10/24 06:10:50;;;;;;;4.35;3.85;;;;;;;;;;4990976;28;20201;-72
2021/10/24 06:13:19;;;;;;;5.15;4.07;;;;;;;;;;4989064;28;20194;-73
2021/10/24 06:15:47;;;;;;;3.75;3.05;;;;;;;;;;4980550;28;20256;-72
2021/10/24 06:18:14;;;;;;;4.13;3.83;;;;;;;;;;4986351;28;20197;-73
2021/10/24 06:20:41;;;;;;;4.55;3.35;;;;;;;;;;4989446;28;20217;-72
2021/10/24 06:23:08;;;;;;;4.35;3.70;;;;;;;;;;4980494;28;20198;-72
2021/10/24 06:25:36;;;;;;;3.92;3.50;;;;;;;;;;4986848;28;20657;-73
2021/10/24 06:28:03;;;;;;;4.30;3.20;;;;;;;;;;4991012;28;20209;-73
2021/10/24 06:30:32;;;;;;;3.63;3.33;;;;;;;;;;4991056;28;20233;-73
2021/10/24 06:32:59;;;;;;;3.97;3.45;;;;;;;;;;4990882;28;20237;-73
2021/10/24 06:35:26;;;;;;;3.90;3.55;;;;;;;;;;4979297;28;20198;-72
2021/10/24 06:37:53;;;;;;;7.00;4.25;;;;;;;;;;4992288;28;20236;-73
2021/10/24 06:40:21;;;;;;;3.92;3.53;;;;;;;;;;4980857;28;20194;-73
2021/10/24 06:42:48;;;;;;;4.55;3.90;;;;;;;;;;4994005;28;20204;-73
2021/10/24 06:45:15;;;;;;;4.00;3.60;;;;;;;;;;4986028;28;20654;-73
2021/10/24 06:47:44;;;;;;;3.80;3.17;;;;;;;;;;4994895;28;20216;-73
2021/10/24 06:50:12;;;;;;;4.25;3.58;;;;;;;;;;4983790;28;20206;-73
2021/10/24 06:52:39;;;;;;;4.53;3.85;;;;;;;;;;4994115;28;20226;-73
2021/10/24 06:55:06;;;;;;;4.50;4.10;;;;;;;;;;4988523;28;20209;-73
2021/10/24 06:57:45;;;;;;;4.70;4.30;;;;;;;;;;4995840;28;20259;-73
2021/10/24 07:00:12;;;;;;;4.25;3.88;;;;;;;;;;4993990;28;20206;-73
2021/10/24 07:02:40;;;;;;;5.03;3.95;;;;;;;;;;4995368;28;20798;-74
2021/10/24 07:05:08;;;;;;;4.88;4.38;;;;;;;;;;4995187;28;20197;-75
2021/10/24 07:07:35;;;;;;;4.03;3.63;;;;;;;;;;4992821;28;20220;-73
2021/10/24 07:10:02;;;;;;;4.80;3.60;;;;;;;;;;4994057;28;20306;-74
2021/10/24 07:12:29;;;;;;;6.05;3.45;;;;;;;;;;4994335;28;20740;-73
2021/10/24 07:14:56;;;;;;;5.07;4.57;;;;;;;;;;4995386;28;20209;-73
2021/10/24 07:17:24;;;;;;;5.55;3.92;;;;;;;;;;4988612;28;20206;-73
2021/10/24 07:19:51;;;;;;;6.75;4.45;;;;;;;;;;4995282;28;20204;-73
2021/10/24 07:22:19;;;;;;;4.85;4.15;;;;;;;;;;4994666;28;20396;-73
2021/10/24 07:24:46;;;;;;;5.10;3.90;;;;;;;;;;4994841;28;20212;-74
2021/10/24 07:27:13;;;;;;;7.03;4.60;;;;;;;;;;4993623;28;20198;-73
2021/10/24 07:29:40;;;;;;;6.75;4.78;;;;;;;;;;4993365;28;20287;-73
2021/10/24 07:32:08;;;;;;;6.28;3.90;;;;;;;;;;4991859;28;20317;-74
2021/10/24 07:34:35;;;;;;;6.05;3.85;;;;;;;;;;4996167;28;20644;-74
2021/10/24 07:37:02;;;;;;;4.57;4.18;;;;;;;;;;5014825;28;20201;-73
2021/10/24 07:39:30;;;;;;;5.13;3.88;;;;;;;;;;4989470;28;20198;-73
2021/10/24 07:41:58;;;;;;;4.70;3.65;;;;;;;;;;4993224;28;20221;-73
2021/10/24 07:44:25;;;;;;;5.65;4.53;;;;;;;;;;4994709;28;20664;-73
2021/10/24 07:46:54;;;;;;;5.65;3.75;;;;;;;;;;4982604;28;20273;-73
2021/10/24 07:49:21;;;;;;;3.95;3.38;;;;;;;;;;4984605;28;20612;-74
2021/10/24 07:51:48;;;;;;;3.95;3.63;;;;;;;;;;4983598;28;20309;-72
2021/10/24 07:54:15;;;;;;;3.70;3.40;;;;;;;;;;4993420;28;20273;-73
2021/10/24 07:56:44;;;;;;;5.05;4.50;;;;;;;;;;4994823;28;20653;-73
2021/10/24 07:59:11;;;;;;;5.55;3.95;;;;;;;;;;4992935;28;20223;-73
2021/10/24 08:01:39;;;;;;;4.57;3.70;;;;;;;;;;4993944;28;20232;-73
2021/10/24 08:04:06;;;;;;;4.95;3.88;;;;;;;;;;4993644;28;20197;-73
2021/10/24 08:06:33;;;;;;;7.05;3.20;;;;;;;;;;4993810;28;20205;-73
2021/10/24 08:09:01;;;;;;;4.07;2.97;;;;;;;;;;4989600;28;20205;-73
2021/10/24 08:11:28;;;;;;;5.57;3.92;;;;;;;;;;4992245;28;20201;-73
2021/10/24 08:13:57;;;;;;;5.97;3.22;;;;;;;;;;4993557;28;20201;-73
2021/10/24 08:16:24;;;;;;;3.40;2.92;;;;;;;;;;4993210;28;20204;-73
2021/10/24 08:18:51;;;;;;;4.97;3.70;;;;;;;;;;4993409;28;20214;-73
2021/10/24 08:21:18;;;;;;;5.90;3.58;;;;;;;;;;4989902;28;20581;-74
2021/10/24 08:23:45;;;;;;;3.80;2.90;;;;;;;;;;4991379;28;20542;-74
2021/10/24 08:26:13;;;;;;;5.15;3.28;;;;;;;;;;4992232;28;20225;-73
2021/10/24 08:28:40;;;;;;;4.43;3.28;;;;;;;;;;4982184;28;20665;-74
2021/10/24 08:31:10;;;;;;;6.45;3.78;;;;;;;;;;4992822;28;20213;-74
2021/10/24 08:33:37;;;;;;;3.67;2.75;;;;;;;;;;4994052;28;20213;-74
2021/10/24 08:36:04;;;;;;;4.43;4.00;;;;;;;;;;4993066;28;20194;-74
2021/10/24 08:38:32;;;;;;;3.35;3.05;;;;;;;;;;4992363;28;20693;-74
2021/10/24 08:41:02;;;;;;;4.45;3.65;;;;;;;;;;4993377;28;20204;-74
2021/10/24 08:43:30;;;;;;;4.45;3.00;;;;;;;;;;4984061;28;20202;-74
2021/10/24 08:45:58;;;;;;;4.30;3.88;;;;;;;;;;4989448;28;20543;-73
2021/10/24 08:48:26;;;;;;;3.45;3.00;;;;;;;;;;4978384;28;20198;-74
2021/10/24 08:50:53;;;;;;;4.15;3.40;;;;;;;;;;4993569;28;20554;-74
2021/10/24 08:53:25;;;;;;;3.25;2.95;;;;;;;;;;4990851;28;20226;-74
2021/10/24 08:55:52;;;;;;;5.20;3.40;;;;;;;;;;4992233;28;20197;-74
2021/10/24 08:58:19;;;;;;;3.65;3.15;;;;;;;;;;4992868;28;20206;-74
2021/10/24 09:00:47;;;;;;;5.03;3.92;;;;;;;;;;4991914;28;20209;-74
2021/10/24 09:03:14;;;;;;;6.60;3.42;;;;;;;;;;4992265;28;20221;-73
2021/10/24 09:05:43;;;;;;;4.15;3.00;;;;;;;;;;4993364;28;20205;-74
2021/10/24 09:08:11;;;;;;;4.07;3.20;;;;;;;;;;4987035;28;20205;-74
2021/10/24 09:10:39;;;;;;;3.00;2.63;;;;;;;;;;4988364;28;20207;-73
2021/10/24 09:13:07;;;;;;;5.00;3.03;;;;;;;;;;4993010;28;20194;-73
2021/10/24 09:15:44;;;;;;;4.30;2.35;;;;;;;;;;4989843;28;20201;-74
2021/10/24 09:18:12;;;;;;;4.65;3.75;;;;;;;;;;4991726;28;20189;-73
2021/10/24 09:20:40;;;;;;;5.03;2.97;;;;;;;;;;4992984;28;20197;-73
2021/10/24 09:23:09;;;;;;;3.40;2.70;;;;;;;;;;4992836;28;20221;-74
2021/10/24 09:25:47;;;;;;;4.50;2.60;;;;;;;;;;4991030;28;20202;-74
2021/10/24 09:28:17;;;;;;;2.97;2.50;;;;;;;;;;4992765;28;20223;-73
2021/10/24 09:30:45;;;;;;;3.97;2.80;;;;;;;;;;4988870;28;20225;-74
2021/10/24 09:33:13;;;;;;;2.45;2.25;;;;;;;;;;4992797;28;20560;-74
2021/10/24 09:35:41;;;;;;;2.97;2.42;;;;;;;;;;4992926;28;20255;-73
2021/10/24 09:38:13;;;;;;;3.60;2.50;;;;;;;;;;4987348;28;20213;-74
2021/10/24 09:40:42;;;;;;;3.90;2.88;;;;;;;;;;4990425;28;20680;-73
2021/10/24 09:43:13;;;;;;;3.38;2.28;;;;;;;;;;4992527;28;20219;-74
2021/10/24 09:45:41;;;;;;;3.35;2.95;;;;;;;;;;4992406;28;20296;-74
2021/10/24 09:48:10;;;;;;;5.72;2.45;;;;;;;;;;4992930;28;20201;-73
2021/10/24 09:50:39;;;;;;;2.78;2.58;;;;;;;;;;4991617;28;20743;-74
2021/10/24 09:53:14;;;;;;;2.50;2.30;;;;;;;;;;4985475;28;20244;-72
2021/10/24 09:55:42;;;;;;;4.22;2.35;;;;;;;;;;4992289;28;20200;-74
2021/10/24 09:58:09;;;;;;;5.88;2.92;;;;;;;;;;4990136;28;20295;-73
2021/10/24 10:00:37;;;;;;;3.33;2.35;;;;;;;;;;4989300;28;20205;-73
2021/10/24 10:03:05;;;;;;;3.08;2.40;;;;;;;;;;4973569;28;20261;-73
2021/10/24 10:05:33;;;;;;;2.80;1.92;;;;;;;;;;4988247;28;20206;-73
2021/10/24 10:08:00;;;;;;;3.53;2.58;;;;;;;;;;4982260;28;20206;-74
2021/10/24 10:10:29;;;;;;;2.53;1.90;;;;;;;;;;4988612;28;20197;-73
2021/10/24 10:12:58;;;;;;;3.03;2.20;;;;;;;;;;4983676;28;20194;-74
2021/10/24 10:15:30;;;;;;;2.90;1.92;;;;;;;;;;4979894;28;20242;-72
2021/10/24 10:17:58;;;;;;;2.40;2.20;;;;;;;;;;4989960;28;20194;-71
2021/10/24 10:20:26;;;;;;;2.53;2.33;;;;;;;;;;4984110;28;20627;-71
2021/10/24 10:23:00;;;;;;;2.70;2.30;;;;;;;;;;4994674;28;20259;-72
2021/10/24 10:25:30;;;;;;;3.03;2.17;;;;;;;;;;4991844;28;20255;-72
2021/10/24 10:27:57;;;;;;;6.85;2.33;;;;;;;;;;4989571;28;20273;-71
2021/10/24 10:30:32;;;;;;;2.92;2.10;;;;;;;;;;4988455;28;20224;-71
2021/10/24 10:33:00;;;;;;;5.53;2.25;;;;;;;;;;4985271;28;20629;-72
2021/10/24 10:35:27;;;;;;;4.65;2.03;;;;;;;;;;4988681;28;20202;-71
2021/10/24 10:37:55;;;;;;;3.63;1.83;;;;;;;;;;4987572;28;20642;-71
2021/10/24 10:40:23;;;;;;;2.13;1.90;;;;;;;;;;4988679;28;20212;-72
2021/10/24 10:43:08;;;;;;;2.40;2.20;;;;;;;;;;4990841;28;20217;-72
2021/10/24 10:45:40;;;;;;;2.90;1.83;;;;;;;;;;4990068;28;20209;-71
2021/10/24 10:48:08;;;;;;;3.58;2.40;;;;;;;;;;4991657;28;20204;-71
2021/10/24 10:50:45;;;;;;;3.65;1.92;;;;;;;;;;4991404;28;20301;-71
2021/10/24 10:53:17;;;;;;;1.85;1.58;;;;;;;;;;4989918;28;20192;-71
2021/10/24 10:56:05;;;;;;;3.72;2.10;;;;;;;;;;4988720;28;20232;-71
2021/10/24 10:58:34;;;;;;;2.50;2.30;;;;;;;;;;4991448;28;20225;-73
2021/10/24 11:01:02;;;;;;;4.47;2.10;;;;;;;;;;4989466;28;20197;-73
2021/10/24 11:03:42;;;;;;;3.53;2.20;;;;;;;;;;4987042;28;20228;-73
2021/10/24 11:06:10;;;;;;;2.72;2.17;;;;;;;;;;4989116;28;20211;-73
2021/10/24 11:08:46;;;;;;;2.35;1.80;;;;;;;;;;4991681;28;20205;-73
2021/10/24 11:11:13;;;;;;;2.75;2.08;;;;;;;;;;4991620;28;20201;-72
2021/10/24 11:13:42;;;;;;;3.55;2.53;;;;;;;;;;4988108;28;20210;-72
2021/10/24 11:16:27;;;;;;;3.78;2.28;;;;;;;;;;4989208;28;20248;-73
2021/10/24 11:18:56;;;;;;;2.22;1.98;;;;;;;;;;4984693;28;20198;-73
2021/10/24 11:21:26;;;;;;;2.53;1.90;;;;;;;;;;4975055;28;20239;-72
2021/10/24 11:23:56;;;;;;;3.15;2.13;;;;;;;;;;4997720;28;20332;-73
2021/10/24 11:26:23;;;;;;;2.55;2.35;;;;;;;;;;4991997;28;20202;-72
2021/10/24 11:28:50;;;;;;;1.90;1.70;;;;;;;;;;4995105;28;20198;-73
2021/10/24 11:31:19;;;;;;;3.08;2.65;;;;;;;;;;4992124;28;20221;-73
2021/10/24 11:33:47;;;;;;;1.95;1.75;;;;;;;;;;4993996;28;20194;-72
2021/10/24 11:36:19;;;;;;;2.60;1.95;;;;;;;;;;4993778;28;20201;-73
2021/10/24 11:38:46;;;;;;;2.95;2.30;;;;;;;;;;4990153;28;20716;-72
2021/10/24 11:41:20;;;;;;;1.90;1.80;;;;;;;;;;4991212;28;20201;-72
2021/10/24 11:43:47;;;;;;;4.93;2.42;;;;;;;;;;4991527;28;20217;-72
2021/10/24 11:46:15;;;;;;;6.20;2.35;;;;;;;;;;4987958;28;20194;-72
2021/10/24 11:48:42;;;;;;;3.13;1.92;;;;;;;;;;4992490;28;20205;-73
2021/10/24 11:51:10;;;;;;;4.20;2.33;;;;;;;;;;4985575;28;20205;-72
2021/10/24 11:53:39;;;;;;;4.25;2.97;;;;;;;;;;4989013;28;20198;-72
2021/10/24 11:56:08;;;;;;;3.28;2.72;;;;;;;;;;4990985;28;20657;-72
2021/10/24 11:58:48;;;;;;;4.18;2.03;;;;;;;;;;4994460;28;20201;-72
2021/10/24 12:01:16;;;;;;;3.88;2.20;;;;;;;;;;4990869;28;20201;-72
2021/10/24 12:03:45;;;;;;;4.00;2.10;;;;;;;;;;4994464;28;20272;-72
2021/10/24 12:06:13;;;;;;;2.85;2.10;;;;;;;;;;4989853;28;20599;-71
2021/10/24 12:08:41;;;;;;;4.13;1.92;;;;;;;;;;4985551;28;20293;-72
2021/10/24 12:11:13;;;;;;;2.38;2.17;;;;;;;;;;4987862;28;20220;-71
2021/10/24 12:13:41;;;;;;;2.28;2.08;;;;;;;;;;4992238;28;20195;-72
2021/10/24 12:16:23;;;;;;;5.15;2.25;;;;;;;;;;4994174;28;20206;-72
2021/10/24 12:18:51;;;;;;;4.32;1.75;;;;;;;;;;4992993;28;20201;-73
2021/10/24 12:21:25;;;;;;;2.00;1.80;;;;;;;;;;4990489;28;20220;-72
2021/10/24 12:23:53;;;;;;;3.03;2.00;;;;;;;;;;4982037;28;20265;-72
2021/10/24 12:26:32;;;;;;;2.05;1.85;;;;;;;;;;4988921;28;20209;-71
2021/10/24 12:29:12;;;;;;;2.65;1.95;;;;;;;;;;4993860;28;20189;-72
2021/10/24 12:31:39;;;;;;;5.10;2.35;;;;;;;;;;4988293;28;20562;-72
2021/10/24 12:34:11;;;;;;;2.53;2.00;;;;;;;;;;4990522;28;20194;-72
2021/10/24 12:36:39;;;;;;;4.05;2.00;;;;;;;;;;4990675;28;20206;-72
2021/10/24 12:39:08;;;;;;;3.40;2.38;;;;;;;;;;4986003;28;20252;-72
2021/10/24 12:41:36;;;;;;;6.35;2.78;;;;;;;;;;4992116;28;20637;-71
2021/10/24 12:44:04;;;;;;;6.35;2.67;;;;;;;;;;4986933;28;20711;-72
2021/10/24 12:46:31;;;;;;;3.50;1.75;;;;;;;;;;4992268;28;20284;-72
2021/10/24 12:48:59;;;;;;;2.35;2.22;;;;;;;;;;4992887;28;20260;-72
2021/10/24 12:51:27;;;;;;;3.28;2.80;;;;;;;;;;4991711;28;20205;-72
2021/10/24 12:53:56;;;;;;;2.90;2.13;;;;;;;;;;4985261;28;20198;-72
2021/10/24 12:56:24;;;;;;;2.33;2.13;;;;;;;;;;4992421;28;20576;-72
2021/10/24 12:58:52;;;;;;;2.97;1.95;;;;;;;;;;4990055;28;20212;-72
2021/10/24 13:01:23;;;;;;;2.65;2.30;;;;;;;;;;4989485;28;20236;-72
2021/10/24 13:03:50;;;;;;;2.78;1.70;;;;;;;;;;4990775;28;20217;-72
2021/10/24 13:06:17;;;;;;;1.95;1.55;;;;;;;;;;4987461;28;20194;-71
2021/10/24 13:08:44;;;;;;;3.75;2.65;;;;;;;;;;4992304;28;20256;-72
2021/10/24 13:11:12;;;;;;;2.00;1.80;;;;;;;;;;4993136;28;20197;-72
2021/10/24 13:13:41;;;;;;;3.83;1.88;;;;;;;;;;4992281;28;20208;-72
2021/10/24 13:16:08;;;;;;;13.82;2.92;;;;;;;;;;4990392;28;20653;-72
2021/10/24 13:18:35;;;;;;;3.53;2.22;;;;;;;;;;4987787;28;20193;-72
2021/10/24 13:21:04;;;;;;;2.33;2.13;;;;;;;;;;4988689;28;20253;-72
2021/10/24 13:23:31;;;;;;;7.85;3.03;;;;;;;;;;4991278;28;20214;-72
2021/10/24 13:25:58;;;;;;;5.35;2.30;;;;;;;;;;4992669;28;20209;-72
2021/10/24 13:40:41;;;;;;;2.80;2.15;;;;;;;;;;4988042;28;20212;-72
2021/10/24 13:43:09;;;;;;;3.85;2.28;;;;;;;;;;4992138;28;20221;-72
2021/10/24 13:45:36;;;;;;;5.53;2.13;;;;;;;;;;4992217;28;20300;-72
2021/10/24 13:48:05;;;;;;;3.65;2.03;;;;;;;;;;4989071;28;20228;-72
2021/10/24 13:50:32;;;;;;;4.22;2.05;;;;;;;;;;4976940;28;20220;-72
2021/10/24 13:52:59;;;;;;;3.38;2.10;;;;;;;;;;4992291;28;20240;-72
2021/10/24 13:55:26;;;;;;;3.17;2.40;;;;;;;;;;4980034;28;20198;-72
2021/10/24 13:57:55;;;;;;;2.33;2.13;;;;;;;;;;4974983;28;20204;-72
2021/10/24 14:00:22;;;;;;;6.38;1.90;;;;;;;;;;4986664;28;20613;-72
2021/10/24 14:02:51;;;;;;;3.95;1.80;;;;;;;;;;4985158;28;20244;-71
2021/10/24 14:05:18;;;;;;;2.45;2.25;;;;;;;;;;4984572;28;20653;-72
2021/10/24 14:07:45;;;;;;;4.68;1.60;;;;;;;;;;4985560;28;20205;-72
2021/10/24 14:10:13;;;;;;;3.30;2.35;;;;;;;;;;4990716;28;20236;-72
2021/10/24 14:12:40;;;;;;;1.90;1.73;;;;;;;;;;4992064;28;20296;-72
2021/10/24 14:15:09;;;;;;;2.08;1.73;;;;;;;;;;4991056;28;20197;-72
2021/10/24 14:17:36;;;;;;;2.38;1.80;;;;;;;;;;4984485;28;20693;-72
2021/10/24 14:20:04;;;;;;;3.50;1.95;;;;;;;;;;4987319;28;20222;-72
2021/10/24 14:22:32;;;;;;;8.93;2.55;;;;;;;;;;4989502;28;20202;-72
2021/10/24 14:24:59;;;;;;;3.00;2.25;;;;;;;;;;4984922;28;20319;-73
2021/10/24 14:27:26;;;;;;;2.30;1.70;;;;;;;;;;4991542;28;20247;-73
2021/10/24 14:29:53;;;;;;;4.10;2.00;;;;;;;;;;4989395;28;20284;-74
2021/10/24 14:32:21;;;;;;;2.92;1.80;;;;;;;;;;4994622;28;20194;-72
2021/10/24 14:34:48;;;;;;;2.80;1.73;;;;;;;;;;4983166;28;20699;-73
2021/10/24 14:37:16;;;;;;;2.08;1.80;;;;;;;;;;4989417;28;20256;-72
2021/10/24 14:39:43;;;;;;;5.13;2.22;;;;;;;;;;4988741;28;20224;-72
2021/10/24 14:42:10;;;;;;;1.83;1.73;;;;;;;;;;4989867;28;20281;-73
2021/10/24 14:44:37;;;;;;;3.60;2.22;;;;;;;;;;4990835;28;20238;-72
2021/10/24 14:47:04;;;;;;;2.75;2.00;;;;;;;;;;4991284;28;20681;-72
2021/10/24 14:49:33;;;;;;;4.60;2.33;;;;;;;;;;4982538;28;20252;-72
2021/10/24 14:52:00;;;;;;;3.60;2.00;;;;;;;;;;4987497;28;20194;-72
2021/10/24 14:54:28;;;;;;;3.00;2.42;;;;;;;;;;4989523;28;20610;-72
2021/10/24 14:56:55;;;;;;;2.97;1.75;;;;;;;;;;4988673;28;20201;-72
2021/10/24 14:59:23;;;;;;;2.38;2.17;;;;;;;;;;4983369;28;20318;-73
2021/10/24 15:01:51;;;;;;;2.30;1.83;;;;;;;;;;4990220;28;20229;-73